createdAt,value
2018-11-03T00:01:54.079Z,14.95
2018-11-03T00:03:57.954Z,13.83
2018-11-03T00:06:01.878Z,9.85
2018-11-03T00:08:05.988Z,10.38
2018-11-03T00:10:09.942Z,14.87
2018-11-03T00:12:13.871Z,17.75
2018-11-03T00:14:17.773Z,16.75
2018-11-03T00:16:21.673Z,9.75
2018-11-03T00:18:25.671Z,9.33
2018-11-03T00:20:29.884Z,16.00
2018-11-03T00:22:33.901Z,12.13
2018-11-03T00:24:37.827Z,11.68
2018-11-03T00:26:41.697Z,9.35
2018-11-03T00:28:46.085Z,8.15
2018-11-03T00:30:49.939Z,9.33
2018-11-03T00:32:53.752Z,8.95
2018-11-03T00:34:57.640Z,9.45
2018-11-03T00:37:01.496Z,8.03
2018-11-03T00:39:08.459Z,11.70
2018-11-03T00:41:12.377Z,9.58
2018-11-03T00:43:16.210Z,9.78
2018-11-03T00:45:20.149Z,10.15
2018-11-03T00:47:24.199Z,12.63
2018-11-03T00:49:27.980Z,9.53
2018-11-03T00:51:32.120Z,7.92
2018-11-03T00:53:36.000Z,8.10
2018-11-03T00:55:39.917Z,12.65
2018-11-03T00:57:44.107Z,12.28
2018-11-03T00:59:48.220Z,13.28
2018-11-03T01:01:52.113Z,13.55
2018-11-03T01:03:56.009Z,11.05
2018-11-03T01:06:00.059Z,16.85
2018-11-03T01:08:03.957Z,15.45
2018-11-03T01:10:07.816Z,16.73
2018-11-03T01:12:11.697Z,11.80
2018-11-03T01:14:15.535Z,14.45
2018-11-03T01:16:19.556Z,14.73
2018-11-03T01:18:23.431Z,15.40
2018-11-03T01:20:27.477Z,18.12
2018-11-03T01:22:31.338Z,14.45
2018-11-03T01:24:35.279Z,12.82
2018-11-03T01:26:39.260Z,14.78
2018-11-03T01:28:43.154Z,12.10
2018-11-03T01:30:47.077Z,9.35
2018-11-03T01:32:50.923Z,10.20
2018-11-03T01:34:54.920Z,10.43
2018-11-03T01:36:58.863Z,11.30
2018-11-03T01:39:03.417Z,10.75
2018-11-03T01:41:08.447Z,15.63
2018-11-03T01:43:12.363Z,16.57
2018-11-03T01:45:16.257Z,16.40
2018-11-03T01:47:20.120Z,16.57
2018-11-03T01:49:23.960Z,18.70
2018-11-03T01:51:28.358Z,17.00
2018-11-03T01:53:32.350Z,13.93
2018-11-03T01:55:36.200Z,17.32
2018-11-03T01:57:41.092Z,15.75
2018-11-03T01:59:44.979Z,11.38
2018-11-03T02:01:48.880Z,12.05
2018-11-03T02:03:52.738Z,17.50
2018-11-03T02:05:56.787Z,13.60
2018-11-03T02:08:00.611Z,13.90
2018-11-03T02:10:04.879Z,11.63
2018-11-03T02:12:08.771Z,11.95
2018-11-03T02:14:12.573Z,12.40
2018-11-03T02:16:16.404Z,13.53
2018-11-03T02:18:20.252Z,11.63
2018-11-03T02:20:24.084Z,9.65
2018-11-03T02:22:27.925Z,11.50
2018-11-03T02:24:31.799Z,14.43
2018-11-03T02:26:35.730Z,14.13
2018-11-03T02:28:39.637Z,12.55
2018-11-03T02:30:43.483Z,13.80
2018-11-03T02:32:47.348Z,15.68
2018-11-03T02:34:51.327Z,10.63
2018-11-03T02:36:55.416Z,9.93
2018-11-03T02:38:59.388Z,16.05
2018-11-03T02:41:03.280Z,13.58
2018-11-03T02:43:07.156Z,14.03
2018-11-03T02:45:11.780Z,14.58
2018-11-03T02:47:15.820Z,9.33
2018-11-03T02:49:19.644Z,11.60
2018-11-03T02:51:23.646Z,16.52
2018-11-03T02:53:27.535Z,17.10
2018-11-03T02:55:31.541Z,13.78
2018-11-03T02:57:35.636Z,12.60
2018-11-03T02:59:39.496Z,14.55
2018-11-03T03:01:43.380Z,14.98
2018-11-03T03:03:47.241Z,14.38
2018-11-03T03:05:51.292Z,13.58
2018-11-03T03:07:55.139Z,14.13
2018-11-03T03:09:59.003Z,14.07
2018-11-03T03:12:02.861Z,11.63
2018-11-03T03:14:06.780Z,12.35
2018-11-03T03:16:10.720Z,12.63
2018-11-03T03:18:14.591Z,11.68
2018-11-03T03:20:18.659Z,11.15
2018-11-03T03:22:23.453Z,10.65
2018-11-03T03:24:27.324Z,13.90
2018-11-03T03:26:31.220Z,14.53
2018-11-03T03:28:35.614Z,16.02
2018-11-03T03:30:39.531Z,14.33
2018-11-03T03:32:43.384Z,16.10
2018-11-03T03:34:47.399Z,15.60
2018-11-03T03:36:51.221Z,16.07
2018-11-03T03:38:56.022Z,14.98
2018-11-03T03:40:59.885Z,19.37
2018-11-03T03:43:03.783Z,14.13
2018-11-03T03:45:08.770Z,16.97
2018-11-03T03:47:12.620Z,14.18
2018-11-03T03:49:16.532Z,14.25
2018-11-03T03:51:20.375Z,14.73
2018-11-03T03:53:24.213Z,16.05
2018-11-03T03:55:29.072Z,13.98
2018-11-03T03:57:34.247Z,19.65
2018-11-03T03:59:38.111Z,18.40
2018-11-03T04:01:42.015Z,12.75
2018-11-03T04:03:45.912Z,20.85
2018-11-03T04:05:49.761Z,21.12
2018-11-03T04:07:53.623Z,18.45
2018-11-03T04:09:57.470Z,18.00
2018-11-03T04:12:01.373Z,15.68
2018-11-03T04:14:05.998Z,14.83
2018-11-03T04:16:09.860Z,14.55
2018-11-03T04:18:13.751Z,15.18
2018-11-03T04:20:18.530Z,36.20
2018-11-03T04:22:22.361Z,47.53
2018-11-03T04:24:26.649Z,37.28
2018-11-03T04:26:31.068Z,16.17
2018-11-03T04:28:34.865Z,11.80
2018-11-03T04:30:38.964Z,14.83
2018-11-03T04:32:43.586Z,14.98
2018-11-03T04:34:47.431Z,15.05
2018-11-03T04:36:51.236Z,15.40
2018-11-03T04:38:55.450Z,15.13
2018-11-03T04:40:59.320Z,14.07
2018-11-03T04:43:03.162Z,14.53
2018-11-03T04:45:07.905Z,12.85
2018-11-03T04:47:11.926Z,16.30
2018-11-03T04:49:15.780Z,13.68
2018-11-03T04:51:19.600Z,14.47
2018-11-03T04:53:23.440Z,13.25
2018-11-03T04:55:27.514Z,14.70
2018-11-03T04:57:31.377Z,13.38
2018-11-03T04:59:35.242Z,13.48
2018-11-03T05:01:39.084Z,13.50
2018-11-03T05:03:42.985Z,16.45
2018-11-03T05:05:46.883Z,18.27
2018-11-03T05:07:50.789Z,18.15
2018-11-03T05:09:54.737Z,16.20
2018-11-03T05:11:58.894Z,14.05
2018-11-03T05:14:02.767Z,14.55
2018-11-03T05:16:06.598Z,14.55
2018-11-03T05:18:11.193Z,12.47
2018-11-03T05:20:15.037Z,13.68
2018-11-03T05:22:18.867Z,16.02
2018-11-03T05:24:22.725Z,15.03
2018-11-03T05:26:26.616Z,14.93
2018-11-03T05:28:30.490Z,13.95
2018-11-03T05:30:34.370Z,17.12
2018-11-03T05:32:38.737Z,17.40
2018-11-03T05:34:42.792Z,15.63
2018-11-03T05:36:46.638Z,15.40
2018-11-03T05:38:51.616Z,16.27
2018-11-03T05:40:55.468Z,14.75
2018-11-03T05:42:59.545Z,13.60
2018-11-03T05:45:03.583Z,16.90
2018-11-03T05:47:08.062Z,15.13
2018-11-03T05:49:12.073Z,15.45
2018-11-03T05:51:15.935Z,15.48
2018-11-03T05:53:19.780Z,15.48
2018-11-03T05:55:23.656Z,13.78
2018-11-03T05:57:27.617Z,14.28
2018-11-03T05:59:31.499Z,14.70
2018-11-03T06:01:35.397Z,15.98
2018-11-03T06:03:39.412Z,16.65
2018-11-03T06:05:43.265Z,14.00
2018-11-03T06:07:47.191Z,14.53
2018-11-03T06:09:51.224Z,13.15
2018-11-03T06:11:55.152Z,14.38
2018-11-03T06:13:59.008Z,16.62
2018-11-03T06:16:03.458Z,13.03
2018-11-03T06:18:07.558Z,14.28
2018-11-03T06:20:11.476Z,16.75
2018-11-03T06:22:15.437Z,12.05
2018-11-03T06:24:20.091Z,14.80
2018-11-03T06:26:23.953Z,14.33
2018-11-03T06:28:28.228Z,14.83
2018-11-03T06:30:32.130Z,13.15
2018-11-03T06:32:36.355Z,16.00
2018-11-03T06:34:40.325Z,11.45
2018-11-03T06:36:44.267Z,17.32
2018-11-03T06:38:48.157Z,15.98
2018-11-03T06:40:52.177Z,14.63
2018-11-03T06:42:55.999Z,13.88
2018-11-03T06:44:59.857Z,14.33
2018-11-03T06:47:03.722Z,12.95
2018-11-03T06:49:12.938Z,11.57
2018-11-03T06:51:16.948Z,11.12
2018-11-03T06:53:20.839Z,11.63
2018-11-03T06:55:24.630Z,11.15
2018-11-03T06:57:28.648Z,10.95
2018-11-03T06:59:32.451Z,10.75
2018-11-03T07:01:36.833Z,11.73
2018-11-03T07:03:40.704Z,9.15
2018-11-03T07:05:44.629Z,9.00
2018-11-03T07:07:48.480Z,9.85
2018-11-03T07:09:52.311Z,13.43
2018-11-03T07:11:56.244Z,10.43
2018-11-03T07:14:00.284Z,10.48
2018-11-03T07:16:04.482Z,9.50
2018-11-03T07:18:08.395Z,10.53
2018-11-03T07:20:13.243Z,10.18
2018-11-03T07:22:17.045Z,10.50
2018-11-03T07:24:20.955Z,9.98
2018-11-03T07:26:24.880Z,8.83
2018-11-03T07:28:28.797Z,11.78
2018-11-03T07:30:32.592Z,10.32
2018-11-03T07:32:36.652Z,9.13
2018-11-03T07:34:40.507Z,8.78
2018-11-03T07:36:44.289Z,10.63
2018-11-03T07:38:48.155Z,10.13
2018-11-03T07:40:52.023Z,8.35
2018-11-03T07:42:55.972Z,8.90
2018-11-03T07:44:59.839Z,9.53
2018-11-03T07:47:03.662Z,10.05
2018-11-03T07:49:08.528Z,12.78
2018-11-03T07:51:12.439Z,12.75
2018-11-03T07:53:16.483Z,11.53
2018-11-03T07:55:20.387Z,10.28
2018-11-03T07:57:25.808Z,9.87
2018-11-03T07:59:29.564Z,10.13
2018-11-03T08:01:33.212Z,9.27
2018-11-03T08:03:36.807Z,9.47
2018-11-03T08:05:40.802Z,9.03
2018-11-03T08:07:44.437Z,9.00
2018-11-03T08:09:48.244Z,11.63
2018-11-03T08:11:51.730Z,9.47
2018-11-03T08:13:55.464Z,9.60
2018-11-03T08:15:59.969Z,11.27
2018-11-03T08:18:03.498Z,10.63
2018-11-03T08:20:08.255Z,9.63
2018-11-03T08:22:11.809Z,9.50
2018-11-03T08:24:15.381Z,10.70
2018-11-03T08:26:18.927Z,9.00
2018-11-03T08:28:22.933Z,9.20
2018-11-03T08:30:26.544Z,9.60
2018-11-03T08:32:30.149Z,7.83
2018-11-03T08:34:33.727Z,9.00
2018-11-03T08:36:37.265Z,9.10
2018-11-03T08:38:40.802Z,9.67
2018-11-03T08:40:44.308Z,9.53
2018-11-03T08:42:47.813Z,11.97
2018-11-03T08:44:51.342Z,10.00
2018-11-03T08:46:54.868Z,9.50
2018-11-03T08:48:58.534Z,10.93
2018-11-03T08:51:02.196Z,10.97
2018-11-03T08:53:05.753Z,14.93
2018-11-03T08:55:10.648Z,10.47
2018-11-03T08:57:14.191Z,11.43
2018-11-03T08:59:17.775Z,14.53
2018-11-03T09:01:21.414Z,11.80
2018-11-03T09:03:24.902Z,9.73
2018-11-03T09:05:28.523Z,9.47
2018-11-03T09:07:32.011Z,9.73
2018-11-03T09:09:35.544Z,11.27
2018-11-03T09:11:39.108Z,10.13
2018-11-03T09:13:42.618Z,9.93
2018-11-03T09:15:46.147Z,12.00
2018-11-03T09:17:56.161Z,10.13
2018-11-03T09:19:59.722Z,13.07
2018-11-03T09:22:03.251Z,10.53
2018-11-03T09:24:07.133Z,13.07
2018-11-03T09:26:11.325Z,10.43
2018-11-03T09:28:15.192Z,12.60
2018-11-03T09:30:19.496Z,12.30
2018-11-03T09:32:23.096Z,10.57
2018-11-03T09:34:26.651Z,10.97
2018-11-03T09:36:31.814Z,10.70
2018-11-03T09:38:36.324Z,10.57
2018-11-03T09:40:40.017Z,10.60
2018-11-03T09:42:44.643Z,11.13
2018-11-03T09:44:48.358Z,11.60
2018-11-03T09:46:52.160Z,10.97
2018-11-03T09:48:55.705Z,10.03
2018-11-03T09:50:59.330Z,10.03
2018-11-03T09:53:04.023Z,10.50
2018-11-03T09:55:09.701Z,9.90
2018-11-03T09:57:13.247Z,9.73
2018-11-03T09:59:16.997Z,9.03
2018-11-03T10:01:20.747Z,11.03
2018-11-03T10:03:24.280Z,10.47
2018-11-03T10:05:28.503Z,9.80
2018-11-03T10:07:32.130Z,11.00
2018-11-03T10:09:36.608Z,11.20
2018-11-03T10:11:40.146Z,10.27
2018-11-03T10:13:43.677Z,9.63
2018-11-03T10:15:47.267Z,11.37
2018-11-03T10:17:51.048Z,9.70
2018-11-03T10:19:54.778Z,12.20
2018-11-03T10:21:58.343Z,10.23
2018-11-03T10:24:01.866Z,10.27
2018-11-03T10:26:06.404Z,9.90
2018-11-03T10:28:09.936Z,10.53
2018-11-03T10:30:14.796Z,12.53
2018-11-03T10:32:18.387Z,10.10
2018-11-03T10:34:22.501Z,8.90
2018-11-03T10:36:26.540Z,11.23
2018-11-03T10:38:30.240Z,9.77
2018-11-03T10:40:33.806Z,9.63
2018-11-03T10:42:37.539Z,10.10
2018-11-03T10:44:41.146Z,9.43
2018-11-03T10:46:44.706Z,13.13
2018-11-03T10:48:48.340Z,11.17
2018-11-03T10:50:51.895Z,10.97
2018-11-03T10:52:55.397Z,8.90
2018-11-03T10:54:58.916Z,9.27
2018-11-03T10:57:02.511Z,9.93
2018-11-03T10:59:06.217Z,11.97
2018-11-03T11:01:15.052Z,8.53
2018-11-03T11:03:23.782Z,9.50
2018-11-03T11:05:33.579Z,10.80
2018-11-03T11:07:42.317Z,9.23
2018-11-03T11:09:51.409Z,9.83
2018-11-03T11:12:00.338Z,11.57
2018-11-03T11:14:03.996Z,9.23
2018-11-03T11:16:07.725Z,9.53
2018-11-03T11:18:11.433Z,9.33
2018-11-03T11:20:15.236Z,11.23
2018-11-03T11:22:18.904Z,9.77
2018-11-03T11:24:22.482Z,9.77
2018-11-03T11:26:26.188Z,10.07
2018-11-03T11:28:29.842Z,11.20
2018-11-03T11:30:37.637Z,11.33
2018-11-03T11:32:41.517Z,11.63
2018-11-03T11:34:45.159Z,13.17
2018-11-03T11:36:48.872Z,11.60
2018-11-03T11:38:52.461Z,12.03
2018-11-03T11:40:56.860Z,11.23
2018-11-03T11:43:00.574Z,11.43
2018-11-03T11:45:04.971Z,10.87
2018-11-03T11:47:08.521Z,11.27
2018-11-03T11:49:12.089Z,10.80
2018-11-03T11:51:15.599Z,9.73
2018-11-03T11:53:19.153Z,11.10
2018-11-03T11:55:22.689Z,10.37
2018-11-03T11:57:26.316Z,9.80
2018-11-03T11:59:30.676Z,11.37
2018-11-03T12:01:34.191Z,9.27
2018-11-03T12:03:37.913Z,9.97
2018-11-03T12:05:41.464Z,11.60
2018-11-03T12:07:45.367Z,8.70
2018-11-03T12:09:49.470Z,9.10
2018-11-03T12:11:52.998Z,8.80
2018-11-03T12:13:56.559Z,7.83
2018-11-03T12:16:00.107Z,8.70
2018-11-03T12:18:03.936Z,8.30
2018-11-03T12:20:07.804Z,7.37
2018-11-03T12:22:11.361Z,10.07
2018-11-03T12:24:14.885Z,8.23
2018-11-03T12:26:18.416Z,8.50
2018-11-03T12:28:21.966Z,8.93
2018-11-03T12:30:25.583Z,8.37
2018-11-03T12:32:29.361Z,8.00
2018-11-03T12:34:33.402Z,9.33
2018-11-03T12:36:37.107Z,9.40
2018-11-03T12:38:40.970Z,8.90
2018-11-03T12:40:44.718Z,9.57
2018-11-03T12:42:48.350Z,10.87
2018-11-03T12:44:51.911Z,8.33
2018-11-03T12:46:55.658Z,8.20
2018-11-03T12:48:59.337Z,10.20
2018-11-03T12:51:02.814Z,9.17
2018-11-03T12:53:06.395Z,10.07
2018-11-03T12:55:11.111Z,9.53
2018-11-03T12:57:14.644Z,9.70
2018-11-03T12:59:18.318Z,9.07
2018-11-03T13:01:21.973Z,11.33
2018-11-03T13:03:25.505Z,9.47
2018-11-03T13:05:29.060Z,10.53
2018-11-03T13:07:33.212Z,12.17
2018-11-03T13:09:36.832Z,10.27
2018-11-03T13:11:41.023Z,9.33
2018-11-03T13:13:44.546Z,9.93
2018-11-03T13:15:48.158Z,8.70
2018-11-03T13:17:51.793Z,8.57
2018-11-03T13:19:55.315Z,10.03
2018-11-03T13:21:58.847Z,10.00
2018-11-03T13:24:02.382Z,9.10
2018-11-03T13:26:06.704Z,9.47
2018-11-03T13:28:10.231Z,9.13
2018-11-03T13:30:15.084Z,7.97
2018-11-03T13:32:18.621Z,10.33
2018-11-03T13:34:22.166Z,9.40
2018-11-03T13:36:25.731Z,8.87
2018-11-03T13:38:29.289Z,8.90
2018-11-03T13:40:32.841Z,8.57
2018-11-03T13:42:36.743Z,8.40
2018-11-03T13:44:40.291Z,8.57
2018-11-03T13:46:43.826Z,8.47
2018-11-03T13:48:47.379Z,8.30
2018-11-03T13:50:50.921Z,11.43
2018-11-03T13:52:54.428Z,9.53
2018-11-03T13:54:57.993Z,8.30
2018-11-03T13:57:02.341Z,10.50
2018-11-03T13:59:05.923Z,9.47
2018-11-03T14:01:09.442Z,8.53
2018-11-03T14:03:12.942Z,9.70
2018-11-03T14:05:17.494Z,9.87
2018-11-03T14:07:21.016Z,8.50
2018-11-03T14:09:24.538Z,8.30
2018-11-03T14:11:28.165Z,8.10
2018-11-03T14:13:31.752Z,8.73
2018-11-03T14:15:35.433Z,8.73
2018-11-03T14:17:39.958Z,8.77
2018-11-03T14:19:43.520Z,8.57
2018-11-03T14:21:47.084Z,7.73
2018-11-03T14:23:50.626Z,7.50
2018-11-03T14:25:54.871Z,7.03
2018-11-03T14:27:58.409Z,7.50
2018-11-03T14:30:02.092Z,8.40
2018-11-03T14:32:06.360Z,7.73
2018-11-03T14:34:09.900Z,8.00
2018-11-03T14:36:13.585Z,8.53
2018-11-03T14:38:17.495Z,8.37
2018-11-03T14:40:21.063Z,7.20
2018-11-03T14:42:24.580Z,8.23
2018-11-03T14:44:28.132Z,8.43
2018-11-03T14:46:31.847Z,9.20
2018-11-03T14:48:35.363Z,9.67
2018-11-03T14:50:39.242Z,10.83
2018-11-03T14:52:43.559Z,12.97
2018-11-03T14:54:50.538Z,10.30
2018-11-03T14:56:54.055Z,9.13
2018-11-03T14:58:57.571Z,9.80
2018-11-03T15:01:01.136Z,9.53
2018-11-03T15:03:05.727Z,9.33
2018-11-03T15:05:10.145Z,9.70
2018-11-03T15:07:13.726Z,9.73
2018-11-03T15:09:17.284Z,10.30
2018-11-03T15:11:20.811Z,9.20
2018-11-03T15:13:24.392Z,10.17
2018-11-03T15:15:28.013Z,9.33
2018-11-03T15:17:32.090Z,11.23
2018-11-03T15:19:35.616Z,8.47
2018-11-03T15:21:39.234Z,10.60
2018-11-03T15:23:42.738Z,9.13
2018-11-03T15:25:46.312Z,11.47
2018-11-03T15:27:49.852Z,11.83
2018-11-03T15:29:53.384Z,10.03
2018-11-03T15:31:56.985Z,10.47
2018-11-03T15:34:00.583Z,11.10
2018-11-03T15:36:04.177Z,9.90
2018-11-03T15:38:07.739Z,9.73
2018-11-03T15:40:13.482Z,9.77
2018-11-03T15:42:17.064Z,9.67
2018-11-03T15:44:20.677Z,12.70
2018-11-03T15:46:24.848Z,9.97
2018-11-03T15:48:28.549Z,11.50
2018-11-03T15:50:32.169Z,9.37
2018-11-03T15:52:35.845Z,11.30
2018-11-03T15:54:40.224Z,13.60
2018-11-03T15:56:43.741Z,12.00
2018-11-03T15:58:47.308Z,9.97
2018-11-03T16:00:50.849Z,12.07
2018-11-03T16:02:54.397Z,10.27
2018-11-03T16:04:57.988Z,10.00
2018-11-03T16:07:01.609Z,11.73
2018-11-03T16:09:08.423Z,12.17
2018-11-03T16:11:11.964Z,11.67
2018-11-03T16:13:15.504Z,9.93
2018-11-03T16:15:19.065Z,10.40
2018-11-03T16:17:22.586Z,10.30
2018-11-03T16:19:26.234Z,10.77
2018-11-03T16:21:30.151Z,9.20
2018-11-03T16:23:33.716Z,9.33
2018-11-03T16:25:37.270Z,13.00
2018-11-03T16:27:41.249Z,10.97
2018-11-03T16:29:44.791Z,11.17
2018-11-03T16:31:48.408Z,10.33
2018-11-03T16:33:51.995Z,13.90
2018-11-03T16:35:55.868Z,13.55
2018-11-03T16:37:59.806Z,12.80
2018-11-03T16:40:03.796Z,13.28
2018-11-03T16:42:07.707Z,16.65
2018-11-03T16:44:11.294Z,14.27
2018-11-03T16:46:15.170Z,10.78
2018-11-03T16:48:19.048Z,11.85
2018-11-03T16:50:22.922Z,17.75
2018-11-03T16:52:26.930Z,11.40
2018-11-03T16:54:31.310Z,11.83
2018-11-03T16:56:34.838Z,13.50
2018-11-03T16:58:39.261Z,9.83
2018-11-03T17:00:43.058Z,11.93
2018-11-03T17:02:46.849Z,9.78
2018-11-03T17:04:50.674Z,12.07
2018-11-03T17:06:54.620Z,8.88
2018-11-03T17:08:58.543Z,9.50
2018-11-03T17:11:02.346Z,9.88
2018-11-03T17:13:06.164Z,13.75
2018-11-03T17:15:10.363Z,9.20
2018-11-03T17:17:14.269Z,8.10
2018-11-03T17:19:18.423Z,8.83
2018-11-03T17:21:22.240Z,12.07
2018-11-03T17:23:26.717Z,13.98
2018-11-03T17:25:30.736Z,9.33
2018-11-03T17:27:35.037Z,8.20
2018-11-03T17:29:38.891Z,9.45
2018-11-03T17:31:43.238Z,7.10
2018-11-03T17:33:47.081Z,9.75
2018-11-03T17:35:51.473Z,8.28
2018-11-03T17:37:55.279Z,7.45
2018-11-03T17:39:59.083Z,6.17
2018-11-03T17:42:02.886Z,9.88
2018-11-03T17:44:07.156Z,5.83
2018-11-03T17:46:11.487Z,9.18
2018-11-03T17:48:15.619Z,8.93
2018-11-03T17:50:19.483Z,10.10
2018-11-03T17:52:24.116Z,12.00
2018-11-03T17:54:27.956Z,8.28
2018-11-03T17:56:31.927Z,9.45
2018-11-03T17:58:35.798Z,7.35
2018-11-03T18:00:39.683Z,6.97
2018-11-03T18:02:44.909Z,9.15
2018-11-03T18:04:48.771Z,7.15
2018-11-03T18:06:52.621Z,9.43
2018-11-03T18:08:56.543Z,10.43
2018-11-03T18:11:00.399Z,11.12
2018-11-03T18:13:04.649Z,9.18
2018-11-03T18:15:08.916Z,8.40
2018-11-03T18:17:13.124Z,7.20
2018-11-03T18:19:17.005Z,9.68
2018-11-03T18:21:20.852Z,7.45
2018-11-03T18:23:24.683Z,8.23
2018-11-03T18:25:28.564Z,9.35
2018-11-03T18:27:32.497Z,12.95
2018-11-03T18:29:36.320Z,9.58
2018-11-03T18:31:40.182Z,10.98
2018-11-03T18:33:44.049Z,8.18
2018-11-03T18:35:48.105Z,8.25
2018-11-03T18:37:52.078Z,9.90
2018-11-03T18:39:56.041Z,8.48
2018-11-03T18:42:00.107Z,10.28
2018-11-03T18:44:03.954Z,8.45
2018-11-03T18:46:07.798Z,8.85
2018-11-03T18:48:11.650Z,10.63
2018-11-03T18:50:15.515Z,9.58
2018-11-03T18:52:19.356Z,10.78
2018-11-03T18:54:23.273Z,12.18
2018-11-03T18:56:28.670Z,12.00
2018-11-03T18:58:32.938Z,11.40
2018-11-03T19:00:36.809Z,7.60
2018-11-03T19:02:41.254Z,9.68
2018-11-03T19:04:45.205Z,8.00
2018-11-03T19:06:49.067Z,8.23
2018-11-03T19:08:53.381Z,11.33
2018-11-03T19:10:57.324Z,8.85
2018-11-03T19:13:01.277Z,9.80
2018-11-03T19:15:05.756Z,7.75
2018-11-03T19:17:09.685Z,9.18
2018-11-03T19:19:13.625Z,6.83
2018-11-03T19:21:17.764Z,11.33
2018-11-03T19:23:21.611Z,7.37
2018-11-03T19:25:25.913Z,7.80
2018-11-03T19:27:29.996Z,8.85
2018-11-03T19:29:33.812Z,6.50
2018-11-03T19:31:38.325Z,9.15
2018-11-03T19:33:42.127Z,7.12
2018-11-03T19:35:45.959Z,7.90
2018-11-03T19:37:49.765Z,8.83
2018-11-03T19:39:53.560Z,10.60
2018-11-03T19:41:57.376Z,7.22
2018-11-03T19:44:01.177Z,9.88
2018-11-03T19:46:05.560Z,11.22
2018-11-03T19:48:09.390Z,8.65
2018-11-03T19:50:13.359Z,12.88
2018-11-03T19:52:17.271Z,9.75
2018-11-03T19:54:21.113Z,8.35
2018-11-03T19:56:24.915Z,8.50
2018-11-03T19:58:28.780Z,8.43
2018-11-03T20:00:33.061Z,9.03
2018-11-03T20:02:37.055Z,7.12
2018-11-03T20:04:41.008Z,12.63
2018-11-03T20:06:44.843Z,8.30
2018-11-03T20:08:48.658Z,8.08
2018-11-03T20:10:52.479Z,8.60
2018-11-03T20:12:56.385Z,9.13
2018-11-03T20:15:01.007Z,9.33
2018-11-03T20:17:11.803Z,6.92
2018-11-03T20:19:15.638Z,7.78
2018-11-03T20:21:19.495Z,7.33
2018-11-03T20:23:23.340Z,9.08
2018-11-03T20:25:27.197Z,9.05
2018-11-03T20:27:31.041Z,9.35
2018-11-03T20:29:34.855Z,8.40
2018-11-03T20:31:38.789Z,10.28
2018-11-03T20:33:42.820Z,10.48
2018-11-03T20:35:46.682Z,7.92
2018-11-03T20:37:50.529Z,8.40
2018-11-03T20:39:54.413Z,7.90
2018-11-03T20:41:58.362Z,8.25
2018-11-03T20:44:02.280Z,6.90
2018-11-03T20:46:06.409Z,8.58
2018-11-03T20:48:10.294Z,11.93
2018-11-03T20:50:14.877Z,9.98
2018-11-03T20:52:18.767Z,14.53
2018-11-03T20:54:22.576Z,11.68
2018-11-03T20:56:26.433Z,10.38
2018-11-03T20:58:30.243Z,14.47
2018-11-03T21:00:34.092Z,14.03
2018-11-03T21:02:37.952Z,9.88
2018-11-03T21:04:41.789Z,11.43
2018-11-03T21:06:45.729Z,13.08
2018-11-03T21:08:50.489Z,10.30
2018-11-03T21:10:54.305Z,16.40
2018-11-03T21:12:58.175Z,13.18
2018-11-03T21:15:02.006Z,11.65
2018-11-03T21:17:06.505Z,13.90
2018-11-03T21:19:10.365Z,13.72
2018-11-03T21:21:14.332Z,12.05
2018-11-03T21:23:18.221Z,9.00
2018-11-03T21:25:22.179Z,12.20
2018-11-03T21:27:26.009Z,8.28
2018-11-03T21:29:29.927Z,8.35
2018-11-03T21:31:33.759Z,10.23
2018-11-03T21:33:37.639Z,9.00
2018-11-03T21:35:41.468Z,11.08
2018-11-03T21:37:45.304Z,12.55
2018-11-03T21:39:49.147Z,8.18
2018-11-03T21:41:52.968Z,11.30
2018-11-03T21:43:56.807Z,10.65
2018-11-03T21:46:00.713Z,10.95
2018-11-03T21:48:04.767Z,10.58
2018-11-03T21:50:09.593Z,11.70
2018-11-03T21:52:13.426Z,11.38
2018-11-03T21:54:17.264Z,11.65
2018-11-03T21:56:21.106Z,12.40
2018-11-03T21:58:24.940Z,11.78
2018-11-03T22:00:28.806Z,12.30
2018-11-03T22:02:39.272Z,12.00
2018-11-03T22:04:43.094Z,12.45
2018-11-03T22:06:46.933Z,10.72
2018-11-03T22:08:50.774Z,11.78
2018-11-03T22:10:54.621Z,14.60
2018-11-03T22:12:58.532Z,11.68
2018-11-03T22:15:02.428Z,13.38
2018-11-03T22:17:06.239Z,17.17
2018-11-03T22:19:10.098Z,13.22
2018-11-03T22:21:13.927Z,12.98
2018-11-03T22:23:17.773Z,13.95
2018-11-03T22:25:21.821Z,12.45
2018-11-03T22:27:25.675Z,13.20
2018-11-03T22:29:29.555Z,11.03
2018-11-03T22:31:33.397Z,12.78
2018-11-03T22:33:37.348Z,9.48
2018-11-03T22:35:41.170Z,11.05
2018-11-03T22:37:45.647Z,13.78
2018-11-03T22:39:49.520Z,10.95
2018-11-03T22:41:53.354Z,11.05
2018-11-03T22:43:57.939Z,10.68
2018-11-03T22:46:02.670Z,12.68
2018-11-03T22:48:07.355Z,10.90
2018-11-03T22:50:11.204Z,8.73
2018-11-03T22:52:15.008Z,8.80
2018-11-03T22:54:18.867Z,9.05
2018-11-03T22:56:22.664Z,8.18
2018-11-03T22:58:26.578Z,13.13
2018-11-03T23:00:30.424Z,13.68
2018-11-03T23:02:34.228Z,10.32
2018-11-03T23:04:38.388Z,10.68
2018-11-03T23:06:42.216Z,10.20
2018-11-03T23:08:46.094Z,10.53
2018-11-03T23:10:49.948Z,10.85
2018-11-03T23:12:54.428Z,10.88
2018-11-03T23:14:58.272Z,12.43
2018-11-03T23:17:02.120Z,18.00
2018-11-03T23:19:06.108Z,12.68
2018-11-03T23:21:09.941Z,13.08
2018-11-03T23:23:13.761Z,10.00
2018-11-03T23:25:17.621Z,11.43
2018-11-03T23:27:21.424Z,15.10
2018-11-03T23:29:25.330Z,11.30
2018-11-03T23:31:29.292Z,10.88
2018-11-03T23:33:33.192Z,10.50
2018-11-03T23:35:37.075Z,10.32
2018-11-03T23:37:41.549Z,10.50
2018-11-03T23:39:45.408Z,13.03
2018-11-03T23:41:49.240Z,11.25
2018-11-03T23:43:53.134Z,11.70
2018-11-03T23:45:56.970Z,14.05
2018-11-03T23:48:00.802Z,13.32
2018-11-03T23:50:04.859Z,14.25
2018-11-03T23:52:08.696Z,14.58
2018-11-03T23:54:12.573Z,14.80
2018-11-03T23:56:16.429Z,13.83
2018-11-03T23:58:20.267Z,13.38
